SBMOSBJP

Guest
Details From SBMO - Zumbi Dos Palmares
To SBJP - Presidente Castro Pinto
Flight Number -
Tags decoded
Created
Modified
Stats Distance 158 nm / 292 km
Max Altitude 0 ft / 0 m
Waypoints 4
Social Downloads 0
Likes 0
Share VATSIM

Download

Looking for another format? Having issues loading an existing format? Contact us
Advertisement - Login to hide

Notes

Requested: SBMO W33 REC JPS SBJP Unmatched points: W33

Route

SBMO REC JPS SBJP

ID Type Via Altitude Latitude Longitude Leg Dist Tot Dist Heading (true) Name
O SBMO APT - 0 ft / 0 m -9.51081˚ -35.79168˚ - 0 nm - Zumbi Dos Palmares
REC VOR - 0 ft / 0 m -8.13659˚ -34.92730˚ 97 nm 97 nm 32° / 32° RECIFE VOR-DME
JPS NDB - 0 ft / 0 m -7.14050˚ -34.95250˚ 59 nm 157 nm 359° / 359° JOAO PESSOA NDB
O SBJP APT - 0 ft / 0 m -7.14838˚ -34.95068˚ 0 nm 157 nm 167° / 167° Presidente Castro Pinto

Altitude Profile

Advertisement - Login to hide

SBMO

Details ICAO SBMO (MCZ)
Name Zumbi Dos Palmares
Region Brazil
Timezone America/Maceio (UTC-3.0)
Stats Elevation 387 ft / 118 m (AMSL)
Location -9.510808° -35.791677°
Runways 1
Magnetic Variation 22.600° W

METAR

SBMO 180300Z 06004KT CAVOK 24/22 Q1015

Decode

TAF

TAF SBMO 172200Z 1800/1824 08006KT 9999 SCT020 TN23/1808Z TX31/1815Z BECMG 1803/1804 03005KT BECMG 1810/1812 10014KT 9000 SCT015 SCT025 BECMG 1821/1822 10007KT RMK PEU

Decode

Departure Runways

ID Width Length Bearing (true) Bearing (mag) Surface Threshold Offset Overrun Length
12 148 ft / 45 m 8,528 ft / 2,599 m 100.73° 123.33° Asphalt 0 ft / 0 m 210 ft / 64 m
30 148 ft / 45 m 8,528 ft / 2,599 m 280.73° 303.33° Asphalt 0 ft / 0 m 210 ft / 64 m

SBJP

Details ICAO SBJP (JPA)
Name Presidente Castro Pinto
Region Brazil
Timezone America/Fortaleza (UTC-3.0)
Stats Elevation 215 ft / 66 m (AMSL)
Location -7.148382° -34.950680°
Runways 1
Magnetic Variation 21.767° W

METAR

SBJP 180300Z 09006KT 9999 FEW020 26/21 Q1014

Decode

TAF

TAF SBJP 172200Z 1800/1824 12007KT 9999 SCT020 TN25/1808Z TX31/1814Z BECMG 1809/1811 12013KT BKN025 BECMG 1817/1818 SCT030 BECMG 1821/1822 13008KT RMK PEU

Decode

Destination Runways

ID Width Length Bearing (true) Bearing (mag) Surface Threshold Offset Overrun Length
16 148 ft / 45 m 8,282 ft / 2,524 m 135.67° 157.44° Asphalt 0 ft / 0 m 0 ft / 0 m
34 148 ft / 45 m 8,282 ft / 2,524 m 315.67° 337.44° Asphalt 0 ft / 0 m 200 ft / 61 m

Popular Alternatives